首页
METAR-TAF:

METAR-TAF

机场 :

貝爾格勒尼古拉·特斯拉機場

贝尔格莱德, 塞尔维亚

纬度: 44-49N, 经度: 020-17E, 海拔: 96米

当前天气观测

该预报发布于24分钟前的02:00 UTC
风速12节,风向西
温度 11°C
湿度 100%
气压 1020 hPa
能见度10公里或以上
1500米以下无云,无积雨云

METAR: LYBE 230200Z 27012KT CAVOK 11/11 Q1020 NOSIG

时间: 04:24 (02:24 UTC)

预报

该预报发布于3小时和24分钟前的23:00 UTC
预报有效从23日的 00点(UTC)到 23日的 24点(UTC)
风速9节,风向西转西北
能见度10公里或以上
散云层高于3300英尺

TAF: LYBE 222300Z 2300/2324 30009KT 9999 SCT033 TX22/2313Z TN10/2303Z

超过4000个机场的气象观测和天气预报(METAR&TAF报告)。

可查询的气象台以黄色和红色小点在地图上表示。

将鼠标移到小点上方,可查看气象台名称。

然后点击查看天气观测和预报。

如需切换地图:点击带黑十字的绿色按钮放大地图;点击带横线的绿色按钮缩小地图;或者点击绿色箭头查看邻近地区的地图。


METAR-TAF: